createdAt,value
2018-02-15T00:01:40.397Z,7.97
2018-02-15T00:04:08.564Z,6.63
2018-02-15T00:06:36.246Z,7.07
2018-02-15T00:11:44.489Z,5.25
2018-02-15T00:14:13.063Z,4.40
2018-02-15T00:19:13.460Z,7.50
2018-02-15T00:21:43.736Z,8.40
2018-02-15T00:24:11.390Z,7.70
2018-02-15T00:26:40.125Z,7.80
2018-02-15T00:29:07.701Z,7.70
2018-02-15T00:31:35.375Z,9.27
2018-02-15T00:34:03.089Z,6.60
2018-02-15T00:36:30.722Z,6.23
2018-02-15T00:38:58.372Z,4.13
2018-02-15T00:41:26.080Z,5.63
2018-02-15T00:43:53.746Z,6.80
2018-02-15T00:46:22.232Z,6.90
2018-02-15T00:51:21.885Z,7.13
2018-02-15T00:56:24.464Z,6.23
2018-02-15T00:58:52.115Z,6.90
2018-02-15T01:01:19.774Z,6.80
2018-02-15T01:03:47.560Z,7.37
2018-02-15T01:06:15.194Z,7.20
2018-02-15T01:08:42.851Z,7.23
2018-02-15T01:11:13.671Z,7.00
2018-02-15T01:13:41.302Z,7.07
2018-02-15T01:18:51.005Z,9.20
2018-02-15T01:21:18.648Z,7.70
2018-02-15T01:23:46.302Z,6.87
2018-02-15T01:26:14.078Z,6.73
2018-02-15T01:28:41.723Z,7.00
2018-02-15T01:31:09.365Z,6.50
2018-02-15T01:33:37.513Z,6.67
2018-02-15T01:36:05.933Z,6.90
2018-02-15T01:38:39.304Z,5.63
2018-02-15T01:41:06.939Z,4.37
2018-02-15T01:43:34.717Z,6.13
2018-02-15T01:46:02.404Z,6.47
2018-02-15T01:48:30.061Z,6.20
2018-02-15T01:50:57.721Z,6.97
2018-02-15T01:53:27.600Z,5.87
2018-02-15T01:55:55.278Z,6.17
2018-02-15T01:58:23.071Z,6.53
2018-02-15T02:00:50.770Z,7.07
2018-02-15T02:03:18.485Z,6.83
2018-02-15T02:05:46.147Z,7.97
2018-02-15T02:08:13.859Z,5.33
2018-02-15T02:10:42.114Z,6.70
2018-02-15T02:13:10.385Z,6.67
2018-02-15T02:18:10.117Z,6.80
2018-02-15T02:20:37.752Z,7.00
2018-02-15T02:23:05.967Z,6.33
2018-02-15T02:28:12.230Z,7.93
2018-02-15T02:33:12.976Z,6.43
2018-02-15T02:35:40.695Z,6.43
2018-02-15T02:38:08.360Z,6.67
2018-02-15T02:40:36.024Z,5.63
2018-02-15T02:45:43.970Z,8.32
2018-02-15T02:48:11.681Z,7.10
2018-02-15T02:50:39.632Z,5.60
2018-02-15T02:53:07.346Z,5.27
2018-02-15T02:55:35.205Z,6.10
2018-02-15T02:58:02.830Z,5.60
2018-02-15T03:00:33.019Z,5.67
2018-02-15T03:03:00.722Z,5.50
2018-02-15T03:05:28.433Z,5.37
2018-02-15T03:07:56.211Z,5.50
2018-02-15T03:10:23.959Z,6.83
2018-02-15T03:12:53.200Z,6.70
2018-02-15T03:15:22.336Z,6.07
2018-02-15T03:17:50.077Z,5.90
2018-02-15T03:20:18.690Z,6.17
2018-02-15T03:22:46.363Z,6.83
2018-02-15T03:25:14.246Z,6.07
2018-02-15T03:27:42.860Z,6.10
2018-02-15T03:30:11.199Z,6.20
2018-02-15T03:32:38.824Z,5.70
2018-02-15T03:35:06.672Z,6.33
2018-02-15T03:37:34.306Z,5.77
2018-02-15T03:40:02.025Z,5.50
2018-02-15T03:42:29.680Z,6.37
2018-02-15T03:44:57.353Z,6.80
2018-02-15T03:47:26.598Z,5.87
2018-02-15T03:49:56.186Z,5.33
2018-02-15T03:54:55.877Z,5.70
2018-02-15T03:57:24.739Z,6.13
2018-02-15T03:59:52.933Z,6.30
2018-02-15T04:02:22.444Z,6.90
2018-02-15T04:09:57.227Z,8.02
2018-02-15T04:14:57.098Z,5.80
2018-02-15T04:17:25.422Z,5.83
2018-02-15T04:19:53.078Z,6.47
2018-02-15T04:24:52.760Z,5.07
2018-02-15T04:27:20.418Z,5.50
2018-02-15T04:29:49.003Z,5.77
2018-02-15T04:32:16.770Z,5.60
2018-02-15T04:34:44.421Z,6.30
2018-02-15T04:37:12.413Z,5.77
2018-02-15T04:39:42.003Z,5.37
2018-02-15T04:42:09.658Z,5.70
2018-02-15T04:44:38.205Z,5.67
2018-02-15T04:47:05.865Z,5.77
2018-02-15T04:49:34.323Z,5.83
2018-02-15T04:52:02.750Z,5.27
2018-02-15T04:54:31.097Z,5.60
2018-02-15T04:56:58.708Z,4.90
2018-02-15T04:59:26.378Z,5.70
2018-02-15T05:01:54.280Z,5.67
2018-02-15T05:06:54.116Z,6.40
2018-02-15T05:09:21.760Z,4.40
2018-02-15T05:11:49.431Z,5.70
2018-02-15T05:14:17.170Z,5.43
2018-02-15T05:16:45.499Z,5.37
2018-02-15T05:19:13.101Z,4.93
2018-02-15T05:21:44.042Z,5.57
2018-02-15T05:24:11.616Z,5.20
2018-02-15T05:29:11.568Z,5.37
2018-02-15T05:34:19.758Z,6.90
2018-02-15T05:36:47.439Z,5.50
2018-02-15T05:39:15.640Z,6.03
2018-02-15T05:41:43.298Z,6.80
2018-02-15T05:46:44.845Z,5.60
2018-02-15T05:49:13.169Z,5.50
2018-02-15T05:51:41.197Z,5.87
2018-02-15T05:54:08.888Z,5.60
2018-02-15T05:56:36.545Z,5.73
2018-02-15T05:59:04.324Z,5.73
2018-02-15T06:01:32.093Z,4.67
2018-02-15T06:04:02.104Z,5.63
2018-02-15T06:06:30.226Z,5.23
2018-02-15T06:08:57.989Z,5.13
2018-02-15T06:11:27.948Z,6.10
2018-02-15T06:13:56.624Z,5.53
2018-02-15T06:16:25.350Z,8.20
2018-02-15T06:18:53.082Z,10.57
2018-02-15T06:21:20.773Z,8.90
2018-02-15T06:23:48.517Z,7.20
2018-02-15T06:26:16.230Z,6.73
2018-02-15T06:28:43.966Z,5.70
2018-02-15T06:31:11.714Z,5.37
2018-02-15T06:33:43.029Z,7.33
2018-02-15T06:36:10.636Z,6.77
2018-02-15T06:38:38.737Z,6.07
2018-02-15T06:41:06.398Z,6.80
2018-02-15T06:43:34.476Z,8.23
2018-02-15T06:46:02.241Z,7.77
2018-02-15T06:51:10.364Z,7.80
2018-02-15T06:56:09.835Z,6.00
2018-02-15T06:58:37.519Z,5.80
2018-02-15T07:01:05.252Z,6.30
2018-02-15T07:03:33.478Z,6.00
2018-02-15T07:06:03.622Z,7.07
2018-02-15T07:08:31.327Z,6.00
2018-02-15T07:10:59.077Z,3.40
2018-02-15T07:13:26.810Z,4.97
2018-02-15T07:15:54.461Z,6.40
2018-02-15T07:18:22.292Z,6.77
2018-02-15T07:20:50.926Z,6.97
2018-02-15T07:23:18.638Z,6.90
2018-02-15T07:25:46.947Z,5.87
2018-02-15T07:28:14.752Z,6.40
2018-02-15T07:33:18.766Z,8.67
2018-02-15T07:35:49.308Z,6.07
2018-02-15T07:38:17.529Z,5.93
2018-02-15T07:40:45.657Z,5.03
2018-02-15T07:45:46.390Z,2.20
2018-02-15T07:48:15.757Z,3.00
2018-02-15T07:50:43.477Z,3.50
2018-02-15T07:53:11.258Z,5.93
2018-02-15T07:55:38.894Z,6.20
2018-02-15T07:58:06.694Z,5.80
2018-02-15T08:00:34.521Z,6.23
2018-02-15T08:03:02.876Z,6.17
2018-02-15T08:05:30.510Z,4.40
2018-02-15T08:07:58.385Z,4.93
2018-02-15T08:10:26.611Z,6.03
2018-02-15T08:12:54.284Z,5.87
2018-02-15T08:18:04.500Z,6.80
2018-02-15T08:20:33.407Z,5.60
2018-02-15T08:23:01.041Z,4.87
2018-02-15T08:25:30.333Z,3.43
2018-02-15T08:27:58.171Z,5.33
2018-02-15T08:30:25.923Z,3.03
2018-02-15T08:32:53.629Z,4.73
2018-02-15T08:35:21.397Z,5.37
2018-02-15T08:37:49.148Z,4.27
2018-02-15T08:40:17.364Z,5.73
2018-02-15T08:42:45.098Z,5.30
2018-02-15T08:45:12.831Z,5.13
2018-02-15T08:47:40.636Z,5.73
2018-02-15T08:50:08.654Z,6.07
2018-02-15T08:52:37.337Z,5.67
2018-02-15T08:55:05.486Z,4.03
2018-02-15T08:57:34.789Z,4.40
2018-02-15T09:00:02.414Z,5.70
2018-02-15T09:02:30.109Z,5.70
2018-02-15T09:04:58.850Z,5.97
2018-02-15T09:07:27.060Z,5.40
2018-02-15T09:15:05.648Z,5.53
2018-02-15T09:17:33.600Z,5.53
2018-02-15T09:20:01.209Z,3.53
2018-02-15T09:22:29.026Z,4.90
2018-02-15T09:24:56.727Z,3.90
2018-02-15T09:27:24.422Z,4.93
2018-02-15T09:29:52.362Z,5.83
2018-02-15T09:32:20.442Z,3.23
2018-02-15T09:34:48.143Z,4.40
2018-02-15T09:37:15.864Z,4.40
2018-02-15T09:42:23.123Z,5.47
2018-02-15T09:44:50.890Z,4.90
2018-02-15T09:47:18.561Z,4.53
2018-02-15T09:49:47.242Z,2.47
2018-02-15T09:52:14.985Z,4.73
2018-02-15T09:54:46.875Z,3.53
2018-02-15T09:57:14.600Z,3.90
2018-02-15T09:59:42.425Z,4.00
2018-02-15T10:02:10.078Z,4.03
2018-02-15T10:04:38.351Z,4.33
2018-02-15T10:07:06.357Z,4.40
2018-02-15T10:09:34.653Z,3.27
2018-02-15T10:12:02.499Z,5.07
2018-02-15T10:14:31.623Z,4.33
2018-02-15T10:17:00.163Z,4.93
2018-02-15T10:19:28.457Z,4.77
2018-02-15T10:21:56.166Z,4.63
2018-02-15T10:24:24.981Z,4.80
2018-02-15T10:26:53.031Z,4.53
2018-02-15T10:29:20.793Z,4.90
2018-02-15T10:31:50.107Z,4.00
2018-02-15T10:34:18.075Z,2.53
2018-02-15T10:36:46.674Z,3.50
2018-02-15T10:39:14.970Z,3.90
2018-02-15T10:41:42.773Z,3.50
2018-02-15T10:44:11.381Z,3.10
2018-02-15T10:46:38.926Z,4.67
2018-02-15T10:51:45.780Z,5.45
2018-02-15T10:54:14.680Z,4.70
2018-02-15T10:56:42.378Z,4.40
2018-02-15T11:01:44.286Z,4.40
2018-02-15T11:04:17.691Z,6.53
2018-02-15T11:06:46.559Z,5.93
2018-02-15T11:11:47.130Z,4.90
2018-02-15T11:14:16.792Z,4.70
2018-02-15T11:16:44.385Z,4.20
2018-02-15T11:19:13.954Z,4.30
2018-02-15T11:21:41.654Z,4.67
2018-02-15T11:24:09.413Z,4.47
2018-02-15T11:26:37.150Z,4.67
2018-02-15T11:29:05.373Z,5.17
2018-02-15T11:31:33.367Z,5.40
2018-02-15T11:34:00.846Z,4.13
2018-02-15T11:36:30.466Z,5.73
2018-02-15T11:38:58.127Z,5.07
2018-02-15T11:41:25.828Z,5.20
2018-02-15T11:43:53.650Z,5.30
2018-02-15T11:46:21.370Z,5.47
2018-02-15T11:48:49.361Z,5.90
2018-02-15T11:51:18.144Z,4.57
2018-02-15T11:53:47.365Z,4.03
2018-02-15T11:58:47.018Z,4.07
2018-02-15T12:01:14.951Z,3.70
2018-02-15T12:03:43.146Z,3.33
2018-02-15T12:06:10.917Z,3.30
2018-02-15T12:11:19.776Z,5.72
2018-02-15T12:13:48.529Z,4.47
2018-02-15T12:16:16.244Z,3.03
2018-02-15T12:18:45.728Z,3.60
2018-02-15T12:21:13.968Z,3.20
2018-02-15T12:26:13.714Z,3.77
2018-02-15T12:28:41.456Z,3.00
2018-02-15T12:31:09.143Z,4.13
2018-02-15T12:33:36.986Z,3.83
2018-02-15T12:36:04.670Z,4.37
2018-02-15T12:38:32.338Z,3.97
2018-02-15T12:43:32.297Z,3.20
2018-02-15T12:46:00.015Z,3.13
2018-02-15T12:48:27.870Z,3.87
2018-02-15T12:50:57.678Z,3.13
2018-02-15T12:53:25.427Z,2.70
2018-02-15T12:55:53.581Z,2.67
2018-02-15T12:58:21.282Z,2.93
2018-02-15T13:00:50.278Z,3.10
2018-02-15T13:03:18.192Z,3.80
2018-02-15T13:05:45.906Z,2.97
2018-02-15T13:08:13.577Z,3.63
2018-02-15T13:10:41.345Z,3.80
2018-02-15T13:13:21.321Z,2.33
2018-02-15T13:16:00.842Z,2.87
2018-02-15T13:18:29.271Z,2.77
2018-02-15T13:23:38.192Z,4.20
2018-02-15T13:28:39.519Z,2.60
2018-02-15T13:31:07.543Z,2.80
2018-02-15T13:33:34.983Z,2.80
2018-02-15T13:36:02.737Z,2.40
2018-02-15T13:38:30.428Z,2.43
2018-02-15T13:40:58.186Z,2.70
2018-02-15T13:48:30.866Z,3.07
2018-02-15T13:53:30.527Z,3.60
2018-02-15T13:55:58.255Z,3.17
2018-02-15T13:58:26.873Z,3.13
2018-02-15T14:00:54.632Z,3.10
2018-02-15T14:03:22.349Z,3.13
2018-02-15T14:05:50.112Z,3.57
2018-02-15T14:08:17.925Z,4.50
2018-02-15T14:13:13.330Z,3.43
2018-02-15T14:15:41.681Z,3.57
2018-02-15T14:18:09.862Z,4.13
2018-02-15T14:23:09.518Z,3.63
2018-02-15T14:25:39.115Z,4.63
2018-02-15T14:28:06.771Z,4.90
2018-02-15T14:30:34.953Z,3.53
2018-02-15T14:33:02.633Z,3.67
2018-02-15T14:35:30.338Z,4.17
2018-02-15T14:37:58.078Z,3.90
2018-02-15T14:40:25.800Z,3.90
2018-02-15T14:42:53.552Z,4.00
2018-02-15T14:45:21.351Z,4.20
2018-02-15T14:50:28.817Z,6.20
2018-02-15T14:52:56.511Z,5.60
2018-02-15T14:55:24.246Z,5.83
2018-02-15T14:57:52.118Z,5.30
2018-02-15T15:00:19.803Z,4.47
2018-02-15T15:02:47.483Z,5.10
2018-02-15T15:05:15.215Z,5.43
2018-02-15T15:07:42.896Z,5.13
2018-02-15T15:10:10.598Z,4.80
2018-02-15T15:12:38.352Z,5.53
2018-02-15T15:15:06.020Z,5.60
2018-02-15T15:17:33.720Z,6.57
2018-02-15T15:20:01.603Z,6.07
2018-02-15T15:22:29.301Z,6.70
2018-02-15T15:24:56.987Z,7.87
2018-02-15T15:27:24.817Z,7.40
2018-02-15T15:29:52.488Z,6.30
2018-02-15T15:32:20.762Z,6.53
2018-02-15T15:34:48.515Z,6.20
2018-02-15T15:37:16.191Z,6.43
2018-02-15T15:39:43.875Z,5.70
2018-02-15T15:42:11.624Z,4.60
2018-02-15T15:44:39.316Z,4.50
2018-02-15T15:47:07.023Z,4.97
2018-02-15T15:49:35.925Z,5.37
2018-02-15T15:52:03.609Z,5.97
2018-02-15T15:54:31.307Z,6.63
2018-02-15T15:56:59.052Z,7.43
2018-02-15T15:59:26.760Z,8.27
2018-02-15T16:01:54.455Z,7.37
2018-02-15T16:04:22.219Z,8.03
2018-02-15T16:06:49.912Z,7.37
2018-02-15T16:09:17.612Z,7.03
2018-02-15T16:11:45.341Z,7.23
2018-02-15T16:16:52.233Z,10.00
2018-02-15T16:19:19.973Z,7.87
2018-02-15T16:21:47.991Z,7.47
2018-02-15T16:24:15.795Z,7.63
2018-02-15T16:26:43.582Z,6.80
2018-02-15T16:29:11.308Z,8.67
2018-02-15T16:31:39.071Z,8.07
2018-02-15T16:34:06.773Z,8.13
2018-02-15T16:36:34.503Z,8.97
2018-02-15T16:39:02.265Z,8.57
2018-02-15T16:41:32.986Z,8.37
2018-02-15T16:44:00.722Z,8.47
2018-02-15T16:46:28.482Z,11.97
2018-02-15T16:48:56.176Z,16.83
2018-02-15T16:51:23.886Z,10.57
2018-02-15T16:53:51.622Z,13.40
2018-02-15T16:56:19.343Z,10.80
2018-02-15T16:58:47.032Z,11.63
2018-02-15T17:01:14.806Z,9.47
2018-02-15T17:03:42.497Z,8.53
2018-02-15T17:06:10.191Z,8.50
2018-02-15T17:08:37.960Z,7.63
2018-02-15T17:11:06.647Z,7.50
2018-02-15T17:13:34.345Z,8.23
2018-02-15T17:16:02.693Z,7.80
2018-02-15T17:18:29.773Z,7.87
2018-02-15T17:20:57.469Z,8.40
2018-02-15T17:23:25.264Z,8.33
2018-02-15T17:25:52.958Z,8.03
2018-02-15T17:28:22.107Z,8.80
2018-02-15T17:30:49.867Z,8.70
2018-02-15T17:35:59.220Z,10.00
2018-02-15T17:38:28.307Z,8.40
2018-02-15T17:40:56.028Z,8.23
2018-02-15T17:43:24.163Z,7.27
2018-02-15T17:45:51.883Z,8.43
2018-02-15T17:48:19.600Z,8.33
2018-02-15T17:50:47.376Z,8.07
2018-02-15T17:53:15.107Z,8.50
2018-02-15T17:55:43.375Z,8.43
2018-02-15T17:58:11.138Z,8.17
2018-02-15T18:00:38.793Z,8.93
2018-02-15T18:03:06.483Z,8.67
2018-02-15T18:05:34.227Z,8.83
2018-02-15T18:08:02.017Z,9.20
2018-02-15T18:10:29.595Z,8.90
2018-02-15T18:12:57.372Z,10.17
2018-02-15T18:15:25.075Z,10.40
2018-02-15T18:17:53.456Z,11.40
2018-02-15T18:20:21.216Z,11.50
2018-02-15T18:25:20.907Z,12.97
2018-02-15T18:27:49.234Z,12.50
2018-02-15T18:30:16.970Z,13.27
2018-02-15T18:32:44.792Z,14.07
2018-02-15T18:35:14.550Z,12.33
2018-02-15T18:37:43.128Z,11.57
2018-02-15T18:40:10.910Z,10.67
2018-02-15T18:42:38.770Z,9.90
2018-02-15T18:45:06.527Z,9.73
2018-02-15T18:47:34.332Z,10.67
2018-02-15T18:50:03.071Z,10.30
2018-02-15T18:52:31.404Z,10.67
2018-02-15T18:54:59.206Z,11.47
2018-02-15T19:00:06.627Z,16.90
2018-02-15T19:02:35.429Z,12.53
2018-02-15T19:05:03.765Z,14.37
2018-02-15T19:07:31.590Z,12.23
2018-02-15T19:09:59.457Z,12.67
2018-02-15T19:12:28.111Z,12.27
2018-02-15T19:14:59.031Z,12.20
2018-02-15T19:17:30.388Z,11.47
2018-02-15T19:19:57.446Z,10.60
2018-02-15T19:22:26.346Z,10.90
2018-02-15T19:24:54.229Z,12.00
2018-02-15T19:27:22.024Z,11.87
2018-02-15T19:29:52.737Z,12.33
2018-02-15T19:32:21.711Z,11.43
2018-02-15T19:34:49.434Z,14.07
2018-02-15T19:37:17.381Z,13.80
2018-02-15T19:39:45.288Z,12.63
2018-02-15T19:44:47.984Z,11.60
2018-02-15T19:47:15.861Z,11.73
2018-02-15T19:49:44.826Z,12.03
2018-02-15T19:54:44.683Z,13.53
2018-02-15T19:57:13.339Z,13.37
2018-02-15T19:59:41.760Z,12.63
2018-02-15T20:02:09.798Z,13.10
2018-02-15T20:04:37.991Z,13.50
2018-02-15T20:07:05.868Z,12.30
2018-02-15T20:12:06.912Z,13.00
2018-02-15T20:14:34.800Z,11.77
2018-02-15T20:17:02.636Z,11.60
2018-02-15T20:19:30.634Z,12.87
2018-02-15T20:24:37.656Z,15.88
2018-02-15T20:27:11.096Z,13.40
2018-02-15T20:29:39.502Z,11.97
2018-02-15T20:32:07.401Z,12.43
2018-02-15T20:34:35.388Z,12.60
2018-02-15T20:37:03.439Z,13.00
2018-02-15T20:42:11.957Z,17.25
2018-02-15T20:44:39.724Z,14.67
2018-02-15T20:47:07.526Z,13.23
2018-02-15T20:49:41.092Z,13.47
2018-02-15T20:52:14.435Z,13.80
2018-02-15T20:54:48.059Z,13.10
2018-02-15T20:57:15.832Z,13.23
2018-02-15T20:59:43.590Z,13.63
2018-02-15T21:02:11.457Z,12.90
2018-02-15T21:04:39.240Z,13.07
2018-02-15T21:07:07.760Z,13.03
2018-02-15T21:09:34.933Z,13.90
2018-02-15T21:12:02.687Z,13.27
2018-02-15T21:14:30.463Z,13.90
2018-02-15T21:16:58.305Z,14.53
2018-02-15T21:19:26.142Z,14.07
2018-02-15T21:21:54.086Z,14.50
2018-02-15T21:24:21.899Z,14.37
2018-02-15T21:26:49.700Z,14.90
2018-02-15T21:29:17.464Z,14.93
2018-02-15T21:31:45.306Z,15.93
2018-02-15T21:34:13.077Z,17.07
2018-02-15T21:36:44.708Z,16.00
2018-02-15T21:39:12.562Z,14.63
2018-02-15T21:41:40.841Z,17.33
2018-02-15T21:44:08.624Z,16.30
2018-02-15T21:46:36.510Z,15.33
2018-02-15T21:49:04.271Z,17.60
2018-02-15T21:51:32.043Z,16.50
2018-02-15T21:53:59.887Z,15.87
2018-02-15T21:56:27.662Z,18.10
2018-02-15T21:58:55.437Z,17.10
2018-02-15T22:01:23.159Z,18.63
2018-02-15T22:06:30.068Z,24.17
2018-02-15T22:08:57.760Z,17.90
2018-02-15T22:11:25.471Z,19.33
2018-02-15T22:13:53.885Z,18.53
2018-02-15T22:16:22.201Z,21.40
2018-02-15T22:18:49.992Z,18.00
2018-02-15T22:21:18.325Z,19.57
2018-02-15T22:23:46.037Z,18.73
2018-02-15T22:26:13.780Z,18.50
2018-02-15T22:28:42.013Z,19.77
2018-02-15T22:31:09.727Z,22.37
2018-02-15T22:33:37.508Z,20.17
2018-02-15T22:36:08.155Z,20.00
2018-02-15T22:38:35.865Z,21.43
2018-02-15T22:41:03.555Z,21.57
2018-02-15T22:46:16.183Z,23.70
2018-02-15T22:48:43.990Z,19.47
2018-02-15T22:51:11.692Z,18.97
2018-02-15T22:56:12.728Z,18.13
2018-02-15T22:58:40.432Z,18.87
2018-02-15T23:01:09.935Z,18.00
2018-02-15T23:03:42.988Z,19.30
2018-02-15T23:11:30.186Z,24.03
2018-02-15T23:16:30.288Z,21.60
2018-02-15T23:18:58.926Z,20.77
2018-02-15T23:21:26.602Z,23.33
2018-02-15T23:23:56.003Z,22.67
2018-02-15T23:26:24.457Z,19.13
2018-02-15T23:28:52.150Z,19.67
2018-02-15T23:31:19.841Z,18.30
2018-02-15T23:33:47.587Z,19.73
2018-02-15T23:36:16.145Z,20.13
2018-02-15T23:38:43.807Z,21.57
2018-02-15T23:43:43.790Z,20.77
2018-02-15T23:48:45.372Z,20.80
2018-02-15T23:51:13.159Z,19.83
2018-02-15T23:53:40.804Z,22.00
2018-02-15T23:56:09.095Z,21.50
2018-02-15T23:58:37.902Z,21.13
